sensor_id;sensor_type;location;lat;lon;timestamp;temperature;humidity
41882;DHT22;27562;47.524;12.404;2023-10-31T00:00:48;11.30;99.90
41882;DHT22;27562;47.524;12.404;2023-10-31T00:03:14;11.30;99.90
41882;DHT22;27562;47.524;12.404;2023-10-31T00:05:39;11.30;99.90
41882;DHT22;27562;47.524;12.404;2023-10-31T00:08:05;11.30;99.90
41882;DHT22;27562;47.524;12.404;2023-10-31T00:10:31;11.20;99.90
41882;DHT22;27562;47.524;12.404;2023-10-31T00:12:56;11.20;99.90
41882;DHT22;27562;47.524;12.404;2023-10-31T00:15:22;11.20;99.90
41882;DHT22;27562;47.524;12.404;2023-10-31T00:17:50;11.20;99.90
41882;DHT22;27562;47.524;12.404;2023-10-31T00:20:18;11.10;99.90
41882;DHT22;27562;47.524;12.404;2023-10-31T00:22:45;11.20;99.90
41882;DHT22;27562;47.524;12.404;2023-10-31T00:25:11;11.20;99.90
41882;DHT22;27562;47.524;12.404;2023-10-31T00:27:36;11.20;99.90
41882;DHT22;27562;47.524;12.404;2023-10-31T00:30:03;11.20;99.90
41882;DHT22;27562;47.524;12.404;2023-10-31T00:32:28;11.20;99.90
41882;DHT22;27562;47.524;12.404;2023-10-31T00:34:54;11.20;99.90
41882;DHT22;27562;47.524;12.404;2023-10-31T00:37:20;11.20;99.90
41882;DHT22;27562;47.524;12.404;2023-10-31T00:39:46;11.10;99.90
41882;DHT22;27562;47.524;12.404;2023-10-31T00:42:11;11.00;99.90
41882;DHT22;27562;47.524;12.404;2023-10-31T00:44:37;10.90;99.90
41882;DHT22;27562;47.524;12.404;2023-10-31T00:47:03;10.80;99.90
41882;DHT22;27562;47.524;12.404;2023-10-31T00:49:30;10.80;99.90
41882;DHT22;27562;47.524;12.404;2023-10-31T00:51:56;10.70;99.90
41882;DHT22;27562;47.524;12.404;2023-10-31T00:54:22;10.60;99.90
41882;DHT22;27562;47.524;12.404;2023-10-31T00:56:48;10.50;99.90
41882;DHT22;27562;47.524;12.404;2023-10-31T00:59:14;10.50;99.90
41882;DHT22;27562;47.524;12.404;2023-10-31T01:01:40;10.40;99.90
41882;DHT22;27562;47.524;12.404;2023-10-31T01:04:06;10.40;99.90
41882;DHT22;27562;47.524;12.404;2023-10-31T01:06:31;10.30;99.90
41882;DHT22;27562;47.524;12.404;2023-10-31T01:08:57;10.30;99.90
41882;DHT22;27562;47.524;12.404;2023-10-31T01:11:23;10.30;99.90
41882;DHT22;27562;47.524;12.404;2023-10-31T01:13:49;10.30;99.90
41882;DHT22;27562;47.524;12.404;2023-10-31T01:16:14;10.30;99.90
41882;DHT22;27562;47.524;12.404;2023-10-31T01:18:40;10.30;99.90
41882;DHT22;27562;47.524;12.404;2023-10-31T01:21:06;10.30;99.90
41882;DHT22;27562;47.524;12.404;2023-10-31T01:23:32;10.30;99.90
41882;DHT22;27562;47.524;12.404;2023-10-31T01:25:58;10.30;99.90
41882;DHT22;27562;47.524;12.404;2023-10-31T01:28:23;10.40;99.90
41882;DHT22;27562;47.524;12.404;2023-10-31T01:30:49;10.40;99.90
41882;DHT22;27562;47.524;12.404;2023-10-31T01:33:15;10.30;99.90
41882;DHT22;27562;47.524;12.404;2023-10-31T01:35:40;10.20;99.90
41882;DHT22;27562;47.524;12.404;2023-10-31T01:38:06;10.20;99.90
41882;DHT22;27562;47.524;12.404;2023-10-31T01:40:32;10.10;99.90
41882;DHT22;27562;47.524;12.404;2023-10-31T01:42:57;10.00;99.90
41882;DHT22;27562;47.524;12.404;2023-10-31T01:45:23;10.00;99.90
41882;DHT22;27562;47.524;12.404;2023-10-31T01:47:49;9.90;99.90
41882;DHT22;27562;47.524;12.404;2023-10-31T01:50:15;9.90;99.90
41882;DHT22;27562;47.524;12.404;2023-10-31T01:52:42;9.90;99.90
41882;DHT22;27562;47.524;12.404;2023-10-31T01:55:08;9.90;99.90
41882;DHT22;27562;47.524;12.404;2023-10-31T01:57:34;9.90;99.90
41882;DHT22;27562;47.524;12.404;2023-10-31T02:00:00;9.90;99.90
41882;DHT22;27562;47.524;12.404;2023-10-31T02:02:26;9.90;99.90
41882;DHT22;27562;47.524;12.404;2023-10-31T02:04:52;9.90;99.90
41882;DHT22;27562;47.524;12.404;2023-10-31T02:07:18;9.90;99.90
41882;DHT22;27562;47.524;12.404;2023-10-31T02:09:44;9.90;99.90
41882;DHT22;27562;47.524;12.404;2023-10-31T02:12:09;9.80;99.90
41882;DHT22;27562;47.524;12.404;2023-10-31T02:14:35;9.80;99.90
41882;DHT22;27562;47.524;12.404;2023-10-31T02:17:01;9.80;99.90
41882;DHT22;27562;47.524;12.404;2023-10-31T02:19:26;9.80;99.90
41882;DHT22;27562;47.524;12.404;2023-10-31T02:21:52;9.70;99.90
41882;DHT22;27562;47.524;12.404;2023-10-31T02:24:18;9.70;99.90
41882;DHT22;27562;47.524;12.404;2023-10-31T02:26:43;9.60;99.90
41882;DHT22;27562;47.524;12.404;2023-10-31T02:29:09;9.60;99.90
41882;DHT22;27562;47.524;12.404;2023-10-31T02:31:35;9.60;99.90
41882;DHT22;27562;47.524;12.404;2023-10-31T02:34:00;9.50;99.90
41882;DHT22;27562;47.524;12.404;2023-10-31T02:36:26;9.50;99.90
41882;DHT22;27562;47.524;12.404;2023-10-31T02:38:52;9.50;99.90
41882;DHT22;27562;47.524;12.404;2023-10-31T02:41:17;9.50;99.90
41882;DHT22;27562;47.524;12.404;2023-10-31T02:43:43;9.50;99.90
41882;DHT22;27562;47.524;12.404;2023-10-31T02:46:09;9.50;99.90
41882;DHT22;27562;47.524;12.404;2023-10-31T02:48:37;9.50;99.90
41882;DHT22;27562;47.524;12.404;2023-10-31T02:51:07;9.40;99.90
41882;DHT22;27562;47.524;12.404;2023-10-31T02:53:34;9.50;99.90
41882;DHT22;27562;47.524;12.404;2023-10-31T02:56:00;9.50;99.90
41882;DHT22;27562;47.524;12.404;2023-10-31T02:58:25;9.40;99.90
41882;DHT22;27562;47.524;12.404;2023-10-31T03:00:51;9.40;99.90
41882;DHT22;27562;47.524;12.404;2023-10-31T03:03:17;9.30;99.90
41882;DHT22;27562;47.524;12.404;2023-10-31T03:05:42;9.30;99.90
41882;DHT22;27562;47.524;12.404;2023-10-31T03:08:08;9.20;99.90
41882;DHT22;27562;47.524;12.404;2023-10-31T03:10:38;9.20;99.90
41882;DHT22;27562;47.524;12.404;2023-10-31T03:13:04;9.10;99.90
41882;DHT22;27562;47.524;12.404;2023-10-31T03:15:30;9.10;99.90
41882;DHT22;27562;47.524;12.404;2023-10-31T03:17:56;9.10;99.90
41882;DHT22;27562;47.524;12.404;2023-10-31T03:20:22;9.10;99.90
41882;DHT22;27562;47.524;12.404;2023-10-31T03:22:47;9.00;99.90
41882;DHT22;27562;47.524;12.404;2023-10-31T03:25:13;9.10;99.90
41882;DHT22;27562;47.524;12.404;2023-10-31T03:27:39;9.10;99.90
41882;DHT22;27562;47.524;12.404;2023-10-31T03:30:05;9.10;99.90
41882;DHT22;27562;47.524;12.404;2023-10-31T03:32:30;9.20;99.90
41882;DHT22;27562;47.524;12.404;2023-10-31T03:34:56;9.10;99.90
41882;DHT22;27562;47.524;12.404;2023-10-31T03:37:22;9.20;99.90
41882;DHT22;27562;47.524;12.404;2023-10-31T03:39:47;9.20;99.90
41882;DHT22;27562;47.524;12.404;2023-10-31T03:42:13;9.20;99.90
41882;DHT22;27562;47.524;12.404;2023-10-31T03:44:39;9.20;99.90
41882;DHT22;27562;47.524;12.404;2023-10-31T03:47:04;9.20;99.90
41882;DHT22;27562;47.524;12.404;2023-10-31T03:49:30;9.20;99.90
41882;DHT22;27562;47.524;12.404;2023-10-31T03:51:56;9.10;99.90
41882;DHT22;27562;47.524;12.404;2023-10-31T03:54:22;9.10;99.90
41882;DHT22;27562;47.524;12.404;2023-10-31T03:56:47;9.20;99.90
41882;DHT22;27562;47.524;12.404;2023-10-31T03:59:14;9.10;99.90
41882;DHT22;27562;47.524;12.404;2023-10-31T04:01:39;9.10;99.90
41882;DHT22;27562;47.524;12.404;2023-10-31T04:04:06;9.10;99.90
41882;DHT22;27562;47.524;12.404;2023-10-31T04:06:32;9.10;99.90
41882;DHT22;27562;47.524;12.404;2023-10-31T04:08:57;9.10;99.90
41882;DHT22;27562;47.524;12.404;2023-10-31T04:11:23;9.10;99.90
41882;DHT22;27562;47.524;12.404;2023-10-31T04:13:49;9.10;99.90
41882;DHT22;27562;47.524;12.404;2023-10-31T04:16:15;9.10;99.90
41882;DHT22;27562;47.524;12.404;2023-10-31T04:18:41;9.10;99.90
41882;DHT22;27562;47.524;12.404;2023-10-31T04:21:06;9.10;99.90
41882;DHT22;27562;47.524;12.404;2023-10-31T04:23:32;9.10;99.90
41882;DHT22;27562;47.524;12.404;2023-10-31T04:25:57;9.10;99.90
41882;DHT22;27562;47.524;12.404;2023-10-31T04:28:23;9.10;99.90
41882;DHT22;27562;47.524;12.404;2023-10-31T04:30:49;9.10;99.90
41882;DHT22;27562;47.524;12.404;2023-10-31T04:33:14;9.00;99.90
41882;DHT22;27562;47.524;12.404;2023-10-31T04:35:40;9.00;99.90
41882;DHT22;27562;47.524;12.404;2023-10-31T04:38:06;9.00;99.90
41882;DHT22;27562;47.524;12.404;2023-10-31T04:40:31;9.00;99.90
41882;DHT22;27562;47.524;12.404;2023-10-31T04:42:57;9.00;99.90
41882;DHT22;27562;47.524;12.404;2023-10-31T04:45:22;9.00;99.90
41882;DHT22;27562;47.524;12.404;2023-10-31T04:47:48;9.00;99.90
41882;DHT22;27562;47.524;12.404;2023-10-31T04:50:14;9.00;99.90
41882;DHT22;27562;47.524;12.404;2023-10-31T04:52:40;8.90;99.90
41882;DHT22;27562;47.524;12.404;2023-10-31T04:55:06;8.90;99.90
41882;DHT22;27562;47.524;12.404;2023-10-31T04:57:32;8.90;99.90
41882;DHT22;27562;47.524;12.404;2023-10-31T04:59:57;8.90;99.90
41882;DHT22;27562;47.524;12.404;2023-10-31T05:02:24;8.90;99.90
41882;DHT22;27562;47.524;12.404;2023-10-31T05:04:50;8.80;99.90
41882;DHT22;27562;47.524;12.404;2023-10-31T05:07:19;8.80;99.90
41882;DHT22;27562;47.524;12.404;2023-10-31T05:09:45;8.80;99.90
41882;DHT22;27562;47.524;12.404;2023-10-31T05:12:11;8.70;99.90
41882;DHT22;27562;47.524;12.404;2023-10-31T05:14:37;8.70;99.90
41882;DHT22;27562;47.524;12.404;2023-10-31T05:17:02;8.70;99.90
41882;DHT22;27562;47.524;12.404;2023-10-31T05:19:28;8.70;99.90
41882;DHT22;27562;47.524;12.404;2023-10-31T05:21:54;8.70;99.90
41882;DHT22;27562;47.524;12.404;2023-10-31T05:24:19;8.70;99.90
41882;DHT22;27562;47.524;12.404;2023-10-31T05:26:45;8.70;99.90
41882;DHT22;27562;47.524;12.404;2023-10-31T05:29:11;8.70;99.90
41882;DHT22;27562;47.524;12.404;2023-10-31T05:31:37;8.70;99.90
41882;DHT22;27562;47.524;12.404;2023-10-31T05:34:03;8.70;99.90
41882;DHT22;27562;47.524;12.404;2023-10-31T05:36:29;8.70;99.90
41882;DHT22;27562;47.524;12.404;2023-10-31T05:38:55;8.70;99.90
41882;DHT22;27562;47.524;12.404;2023-10-31T05:41:21;8.80;99.90
41882;DHT22;27562;47.524;12.404;2023-10-31T05:43:47;8.80;99.90
41882;DHT22;27562;47.524;12.404;2023-10-31T05:46:12;8.80;99.90
41882;DHT22;27562;47.524;12.404;2023-10-31T05:48:44;8.80;99.90
41882;DHT22;27562;47.524;12.404;2023-10-31T05:51:17;8.80;99.90
41882;DHT22;27562;47.524;12.404;2023-10-31T05:53:45;8.80;99.90
41882;DHT22;27562;47.524;12.404;2023-10-31T05:56:12;8.70;99.90
41882;DHT22;27562;47.524;12.404;2023-10-31T05:58:38;8.80;99.90
41882;DHT22;27562;47.524;12.404;2023-10-31T06:01:05;8.80;99.90
41882;DHT22;27562;47.524;12.404;2023-10-31T06:03:31;8.80;99.90
41882;DHT22;27562;47.524;12.404;2023-10-31T06:05:56;8.80;99.90
41882;DHT22;27562;47.524;12.404;2023-10-31T06:08:25;8.80;99.90
41882;DHT22;27562;47.524;12.404;2023-10-31T06:10:53;8.80;99.90
41882;DHT22;27562;47.524;12.404;2023-10-31T06:13:19;8.80;99.90
41882;DHT22;27562;47.524;12.404;2023-10-31T06:15:44;8.80;99.90
41882;DHT22;27562;47.524;12.404;2023-10-31T06:18:10;8.80;99.90
41882;DHT22;27562;47.524;12.404;2023-10-31T06:20:36;8.80;99.90
41882;DHT22;27562;47.524;12.404;2023-10-31T06:23:02;8.80;99.90
41882;DHT22;27562;47.524;12.404;2023-10-31T06:25:30;8.80;99.90
41882;DHT22;27562;47.524;12.404;2023-10-31T06:27:56;8.80;99.90
41882;DHT22;27562;47.524;12.404;2023-10-31T06:30:22;8.80;99.90
41882;DHT22;27562;47.524;12.404;2023-10-31T06:32:50;8.80;99.90
41882;DHT22;27562;47.524;12.404;2023-10-31T06:35:16;8.70;99.90
41882;DHT22;27562;47.524;12.404;2023-10-31T06:37:42;8.80;99.90
41882;DHT22;27562;47.524;12.404;2023-10-31T06:40:08;8.80;99.90
41882;DHT22;27562;47.524;12.404;2023-10-31T06:42:34;8.70;99.90
41882;DHT22;27562;47.524;12.404;2023-10-31T06:45:00;8.70;99.90
41882;DHT22;27562;47.524;12.404;2023-10-31T06:47:26;8.70;99.90
41882;DHT22;27562;47.524;12.404;2023-10-31T06:49:51;8.70;99.90
41882;DHT22;27562;47.524;12.404;2023-10-31T06:52:17;8.70;99.90
41882;DHT22;27562;47.524;12.404;2023-10-31T06:54:42;8.70;99.90
41882;DHT22;27562;47.524;12.404;2023-10-31T06:57:08;8.70;99.90
41882;DHT22;27562;47.524;12.404;2023-10-31T06:59:34;8.70;99.90
41882;DHT22;27562;47.524;12.404;2023-10-31T07:02:00;8.70;99.90
41882;DHT22;27562;47.524;12.404;2023-10-31T07:04:26;8.70;99.90
41882;DHT22;27562;47.524;12.404;2023-10-31T07:06:51;8.70;99.90
41882;DHT22;27562;47.524;12.404;2023-10-31T07:09:26;8.70;99.90
41882;DHT22;27562;47.524;12.404;2023-10-31T07:11:52;8.70;99.90
41882;DHT22;27562;47.524;12.404;2023-10-31T07:14:18;8.70;99.90
41882;DHT22;27562;47.524;12.404;2023-10-31T07:16:43;8.60;99.90
41882;DHT22;27562;47.524;12.404;2023-10-31T07:19:12;8.60;99.90
41882;DHT22;27562;47.524;12.404;2023-10-31T07:21:38;8.60;99.90
41882;DHT22;27562;47.524;12.404;2023-10-31T07:24:04;8.60;99.90
41882;DHT22;27562;47.524;12.404;2023-10-31T07:26:30;8.60;99.90
41882;DHT22;27562;47.524;12.404;2023-10-31T07:28:55;8.60;99.90
41882;DHT22;27562;47.524;12.404;2023-10-31T07:31:22;8.60;99.90
41882;DHT22;27562;47.524;12.404;2023-10-31T07:33:47;8.60;99.90
41882;DHT22;27562;47.524;12.404;2023-10-31T07:36:13;8.60;99.90
41882;DHT22;27562;47.524;12.404;2023-10-31T07:38:39;8.60;99.90
41882;DHT22;27562;47.524;12.404;2023-10-31T07:41:04;8.60;99.90
41882;DHT22;27562;47.524;12.404;2023-10-31T07:43:30;8.60;99.90
41882;DHT22;27562;47.524;12.404;2023-10-31T07:45:56;8.60;99.90
41882;DHT22;27562;47.524;12.404;2023-10-31T07:48:21;8.60;99.90
41882;DHT22;27562;47.524;12.404;2023-10-31T07:50:47;8.60;99.90
41882;DHT22;27562;47.524;12.404;2023-10-31T07:53:13;8.60;99.90
41882;DHT22;27562;47.524;12.404;2023-10-31T07:55:38;8.60;99.90
41882;DHT22;27562;47.524;12.404;2023-10-31T07:58:04;8.60;99.90
41882;DHT22;27562;47.524;12.404;2023-10-31T08:00:30;8.60;99.90
41882;DHT22;27562;47.524;12.404;2023-10-31T08:02:56;8.60;99.90
41882;DHT22;27562;47.524;12.404;2023-10-31T08:05:22;8.50;99.90
41882;DHT22;27562;47.524;12.404;2023-10-31T08:07:47;8.50;99.90
41882;DHT22;27562;47.524;12.404;2023-10-31T08:10:14;8.40;99.90
41882;DHT22;27562;47.524;12.404;2023-10-31T08:12:39;8.40;99.90
41882;DHT22;27562;47.524;12.404;2023-10-31T08:15:05;8.40;99.90
41882;DHT22;27562;47.524;12.404;2023-10-31T08:17:31;8.30;99.90
41882;DHT22;27562;47.524;12.404;2023-10-31T08:19:57;8.20;99.90
41882;DHT22;27562;47.524;12.404;2023-10-31T08:22:23;8.30;99.90
41882;DHT22;27562;47.524;12.404;2023-10-31T08:24:48;8.20;99.90
41882;DHT22;27562;47.524;12.404;2023-10-31T08:27:14;8.10;99.90
41882;DHT22;27562;47.524;12.404;2023-10-31T08:29:39;8.10;99.90
41882;DHT22;27562;47.524;12.404;2023-10-31T08:32:05;8.00;99.90
41882;DHT22;27562;47.524;12.404;2023-10-31T08:34:31;8.00;99.90
41882;DHT22;27562;47.524;12.404;2023-10-31T08:36:57;8.00;99.90
41882;DHT22;27562;47.524;12.404;2023-10-31T08:39:25;8.00;99.90
41882;DHT22;27562;47.524;12.404;2023-10-31T08:41:55;8.10;99.90
41882;DHT22;27562;47.524;12.404;2023-10-31T08:44:21;8.00;99.90
41882;DHT22;27562;47.524;12.404;2023-10-31T08:46:47;8.00;99.90
41882;DHT22;27562;47.524;12.404;2023-10-31T08:49:14;8.00;99.90
41882;DHT22;27562;47.524;12.404;2023-10-31T08:51:41;8.00;99.90
41882;DHT22;27562;47.524;12.404;2023-10-31T08:54:07;8.00;99.90
41882;DHT22;27562;47.524;12.404;2023-10-31T08:56:34;7.90;99.90
41882;DHT22;27562;47.524;12.404;2023-10-31T08:59:00;7.90;99.90
41882;DHT22;27562;47.524;12.404;2023-10-31T09:01:26;7.90;99.90
41882;DHT22;27562;47.524;12.404;2023-10-31T09:03:52;7.90;99.90
41882;DHT22;27562;47.524;12.404;2023-10-31T09:06:18;7.90;99.90
41882;DHT22;27562;47.524;12.404;2023-10-31T09:08:43;7.90;99.90
41882;DHT22;27562;47.524;12.404;2023-10-31T09:11:09;7.90;99.90
41882;DHT22;27562;47.524;12.404;2023-10-31T09:13:35;7.80;99.90
41882;DHT22;27562;47.524;12.404;2023-10-31T09:16:01;7.80;99.90
41882;DHT22;27562;47.524;12.404;2023-10-31T09:18:26;7.80;99.90
41882;DHT22;27562;47.524;12.404;2023-10-31T09:20:52;7.80;99.90
41882;DHT22;27562;47.524;12.404;2023-10-31T09:23:18;7.80;99.90
41882;DHT22;27562;47.524;12.404;2023-10-31T09:25:44;7.80;99.90
41882;DHT22;27562;47.524;12.404;2023-10-31T09:28:10;7.90;99.90
41882;DHT22;27562;47.524;12.404;2023-10-31T09:30:36;7.80;99.90
41882;DHT22;27562;47.524;12.404;2023-10-31T09:33:02;7.80;99.90
41882;DHT22;27562;47.524;12.404;2023-10-31T09:35:28;7.80;99.90
41882;DHT22;27562;47.524;12.404;2023-10-31T09:37:54;7.80;99.90
41882;DHT22;27562;47.524;12.404;2023-10-31T09:40:20;7.80;99.90
41882;DHT22;27562;47.524;12.404;2023-10-31T09:42:47;7.80;99.90
41882;DHT22;27562;47.524;12.404;2023-10-31T09:45:13;7.70;99.90
41882;DHT22;27562;47.524;12.404;2023-10-31T09:47:39;7.60;99.90
41882;DHT22;27562;47.524;12.404;2023-10-31T09:50:06;7.50;99.90
41882;DHT22;27562;47.524;12.404;2023-10-31T09:52:34;7.50;99.90
41882;DHT22;27562;47.524;12.404;2023-10-31T09:55:01;7.40;99.90
41882;DHT22;27562;47.524;12.404;2023-10-31T09:57:28;7.50;99.90
41882;DHT22;27562;47.524;12.404;2023-10-31T09:59:54;7.50;99.90
41882;DHT22;27562;47.524;12.404;2023-10-31T10:02:19;7.50;99.90
41882;DHT22;27562;47.524;12.404;2023-10-31T10:04:45;7.40;99.90
41882;DHT22;27562;47.524;12.404;2023-10-31T10:07:18;7.50;99.90
41882;DHT22;27562;47.524;12.404;2023-10-31T10:09:45;7.60;99.90
41882;DHT22;27562;47.524;12.404;2023-10-31T10:12:16;7.60;99.90
41882;DHT22;27562;47.524;12.404;2023-10-31T10:14:44;7.80;99.90
41882;DHT22;27562;47.524;12.404;2023-10-31T10:17:23;7.80;99.90
41882;DHT22;27562;47.524;12.404;2023-10-31T10:20:09;7.80;99.90
41882;DHT22;27562;47.524;12.404;2023-10-31T10:22:42;7.80;99.90
41882;DHT22;27562;47.524;12.404;2023-10-31T10:25:16;7.70;99.90
41882;DHT22;27562;47.524;12.404;2023-10-31T10:27:43;7.50;99.90
41882;DHT22;27562;47.524;12.404;2023-10-31T10:30:09;7.40;99.90
41882;DHT22;27562;47.524;12.404;2023-10-31T10:32:35;7.40;99.90
41882;DHT22;27562;47.524;12.404;2023-10-31T10:35:01;7.20;99.90
41882;DHT22;27562;47.524;12.404;2023-10-31T10:37:27;7.20;99.90
41882;DHT22;27562;47.524;12.404;2023-10-31T10:39:54;7.20;99.90
41882;DHT22;27562;47.524;12.404;2023-10-31T10:42:44;7.30;99.90
41882;DHT22;27562;47.524;12.404;2023-10-31T10:45:13;7.30;99.90
41882;DHT22;27562;47.524;12.404;2023-10-31T10:47:39;7.40;99.90
41882;DHT22;27562;47.524;12.404;2023-10-31T10:50:06;7.40;99.90
41882;DHT22;27562;47.524;12.404;2023-10-31T10:52:50;7.30;99.90
41882;DHT22;27562;47.524;12.404;2023-10-31T10:55:21;7.20;99.90
41882;DHT22;27562;47.524;12.404;2023-10-31T10:58:05;7.10;99.90
41882;DHT22;27562;47.524;12.404;2023-10-31T11:00:33;7.00;99.90
41882;DHT22;27562;47.524;12.404;2023-10-31T11:03:00;7.10;99.90
41882;DHT22;27562;47.524;12.404;2023-10-31T11:05:27;7.20;99.90
41882;DHT22;27562;47.524;12.404;2023-10-31T11:07:53;7.30;99.90
41882;DHT22;27562;47.524;12.404;2023-10-31T11:10:21;7.30;99.90
41882;DHT22;27562;47.524;12.404;2023-10-31T11:12:47;7.30;99.90
41882;DHT22;27562;47.524;12.404;2023-10-31T11:15:15;7.40;99.90
41882;DHT22;27562;47.524;12.404;2023-10-31T11:17:45;7.40;99.90
41882;DHT22;27562;47.524;12.404;2023-10-31T11:20:14;7.50;99.90
41882;DHT22;27562;47.524;12.404;2023-10-31T11:22:41;7.50;99.90
41882;DHT22;27562;47.524;12.404;2023-10-31T11:25:09;7.60;99.90
41882;DHT22;27562;47.524;12.404;2023-10-31T11:27:36;7.60;99.90
41882;DHT22;27562;47.524;12.404;2023-10-31T11:32:54;7.50;99.90
41882;DHT22;27562;47.524;12.404;2023-10-31T11:35:21;7.50;99.90
41882;DHT22;27562;47.524;12.404;2023-10-31T11:38:02;7.40;99.90
41882;DHT22;27562;47.524;12.404;2023-10-31T11:40:37;7.50;99.90
41882;DHT22;27562;47.524;12.404;2023-10-31T11:43:11;7.50;99.90
41882;DHT22;27562;47.524;12.404;2023-10-31T11:45:44;7.60;99.90
41882;DHT22;27562;47.524;12.404;2023-10-31T11:48:12;7.60;99.90
41882;DHT22;27562;47.524;12.404;2023-10-31T11:50:39;7.60;99.90
41882;DHT22;27562;47.524;12.404;2023-10-31T11:53:12;7.60;99.90
41882;DHT22;27562;47.524;12.404;2023-10-31T11:55:42;7.60;99.90
41882;DHT22;27562;47.524;12.404;2023-10-31T11:58:26;7.60;99.90
41882;DHT22;27562;47.524;12.404;2023-10-31T12:00:53;7.60;99.90
41882;DHT22;27562;47.524;12.404;2023-10-31T12:03:25;7.60;99.90
41882;DHT22;27562;47.524;12.404;2023-10-31T12:05:56;7.50;99.90
41882;DHT22;27562;47.524;12.404;2023-10-31T12:08:43;7.50;99.90
41882;DHT22;27562;47.524;12.404;2023-10-31T12:11:14;7.40;99.90
41882;DHT22;27562;47.524;12.404;2023-10-31T12:13:53;7.50;99.90
41882;DHT22;27562;47.524;12.404;2023-10-31T12:16:22;7.50;99.90
41882;DHT22;27562;47.524;12.404;2023-10-31T12:19:00;7.60;99.90
41882;DHT22;27562;47.524;12.404;2023-10-31T12:21:45;7.60;99.90
41882;DHT22;27562;47.524;12.404;2023-10-31T12:24:17;7.60;99.90
41882;DHT22;27562;47.524;12.404;2023-10-31T12:26:44;7.60;99.90
41882;DHT22;27562;47.524;12.404;2023-10-31T12:29:13;7.60;99.90
41882;DHT22;27562;47.524;12.404;2023-10-31T12:31:51;7.50;99.90
41882;DHT22;27562;47.524;12.404;2023-10-31T12:34:25;7.50;99.90
41882;DHT22;27562;47.524;12.404;2023-10-31T12:36:52;7.60;99.90
41882;DHT22;27562;47.524;12.404;2023-10-31T12:39:24;7.50;99.90
41882;DHT22;27562;47.524;12.404;2023-10-31T12:41:51;7.50;99.90
41882;DHT22;27562;47.524;12.404;2023-10-31T12:44:23;7.50;99.90
41882;DHT22;27562;47.524;12.404;2023-10-31T12:46:49;7.40;99.90
41882;DHT22;27562;47.524;12.404;2023-10-31T12:49:20;7.40;99.90
41882;DHT22;27562;47.524;12.404;2023-10-31T12:52:15;7.40;99.90
41882;DHT22;27562;47.524;12.404;2023-10-31T12:54:40;7.40;99.90
41882;DHT22;27562;47.524;12.404;2023-10-31T12:57:07;7.50;99.90
41882;DHT22;27562;47.524;12.404;2023-10-31T12:59:34;7.50;99.90
41882;DHT22;27562;47.524;12.404;2023-10-31T13:02:02;7.50;99.90
41882;DHT22;27562;47.524;12.404;2023-10-31T13:04:31;7.60;99.90
41882;DHT22;27562;47.524;12.404;2023-10-31T13:09:23;7.70;99.90
41882;DHT22;27562;47.524;12.404;2023-10-31T13:11:49;7.70;99.90
41882;DHT22;27562;47.524;12.404;2023-10-31T13:14:14;7.80;99.90
41882;DHT22;27562;47.524;12.404;2023-10-31T13:16:40;7.80;99.90
41882;DHT22;27562;47.524;12.404;2023-10-31T13:19:05;7.80;99.90
41882;DHT22;27562;47.524;12.404;2023-10-31T13:21:31;7.80;99.90
41882;DHT22;27562;47.524;12.404;2023-10-31T13:23:57;7.80;99.90
41882;DHT22;27562;47.524;12.404;2023-10-31T13:26:22;7.80;99.90
41882;DHT22;27562;47.524;12.404;2023-10-31T13:28:48;7.80;99.90
41882;DHT22;27562;47.524;12.404;2023-10-31T13:31:14;7.80;99.90
41882;DHT22;27562;47.524;12.404;2023-10-31T13:33:40;7.80;99.90
41882;DHT22;27562;47.524;12.404;2023-10-31T13:36:05;7.80;99.90
41882;DHT22;27562;47.524;12.404;2023-10-31T13:38:31;7.80;99.90
41882;DHT22;27562;47.524;12.404;2023-10-31T13:40:57;7.80;99.90
41882;DHT22;27562;47.524;12.404;2023-10-31T13:43:23;7.80;99.90
41882;DHT22;27562;47.524;12.404;2023-10-31T13:45:49;7.80;99.90
41882;DHT22;27562;47.524;12.404;2023-10-31T13:48:15;7.80;99.90
41882;DHT22;27562;47.524;12.404;2023-10-31T13:50:40;7.80;99.90
41882;DHT22;27562;47.524;12.404;2023-10-31T13:53:07;7.80;99.90
41882;DHT22;27562;47.524;12.404;2023-10-31T13:55:33;7.80;99.90
41882;DHT22;27562;47.524;12.404;2023-10-31T13:57:59;7.90;99.90
41882;DHT22;27562;47.524;12.404;2023-10-31T14:00:24;7.80;99.90
41882;DHT22;27562;47.524;12.404;2023-10-31T14:02:50;7.80;99.90
41882;DHT22;27562;47.524;12.404;2023-10-31T14:05:15;7.80;99.90
41882;DHT22;27562;47.524;12.404;2023-10-31T14:07:41;7.80;99.90
41882;DHT22;27562;47.524;12.404;2023-10-31T14:10:07;7.80;99.90
41882;DHT22;27562;47.524;12.404;2023-10-31T14:12:33;7.80;99.90
41882;DHT22;27562;47.524;12.404;2023-10-31T14:14:59;7.80;99.90
41882;DHT22;27562;47.524;12.404;2023-10-31T14:17:24;7.80;99.90
41882;DHT22;27562;47.524;12.404;2023-10-31T14:19:50;7.80;99.90
41882;DHT22;27562;47.524;12.404;2023-10-31T14:22:16;7.80;99.90
41882;DHT22;27562;47.524;12.404;2023-10-31T14:24:41;7.90;99.90
41882;DHT22;27562;47.524;12.404;2023-10-31T14:27:07;7.90;99.90
41882;DHT22;27562;47.524;12.404;2023-10-31T14:29:33;7.80;99.90
41882;DHT22;27562;47.524;12.404;2023-10-31T14:32:06;7.80;99.90
41882;DHT22;27562;47.524;12.404;2023-10-31T14:34:32;7.80;99.90
41882;DHT22;27562;47.524;12.404;2023-10-31T14:36:57;7.80;99.90
41882;DHT22;27562;47.524;12.404;2023-10-31T14:39:23;7.90;99.90
41882;DHT22;27562;47.524;12.404;2023-10-31T14:41:48;7.90;99.90
41882;DHT22;27562;47.524;12.404;2023-10-31T14:44:14;7.90;99.90
41882;DHT22;27562;47.524;12.404;2023-10-31T14:46:41;7.90;99.90
41882;DHT22;27562;47.524;12.404;2023-10-31T14:49:06;7.90;99.90
41882;DHT22;27562;47.524;12.404;2023-10-31T14:51:32;7.90;99.90
41882;DHT22;27562;47.524;12.404;2023-10-31T14:53:58;7.80;99.90
41882;DHT22;27562;47.524;12.404;2023-10-31T14:56:24;7.80;99.90
41882;DHT22;27562;47.524;12.404;2023-10-31T14:58:50;7.70;99.90
41882;DHT22;27562;47.524;12.404;2023-10-31T15:01:15;7.70;99.90
41882;DHT22;27562;47.524;12.404;2023-10-31T15:03:42;7.70;99.90
41882;DHT22;27562;47.524;12.404;2023-10-31T15:06:07;7.60;99.90
41882;DHT22;27562;47.524;12.404;2023-10-31T15:08:33;7.60;99.90
41882;DHT22;27562;47.524;12.404;2023-10-31T15:10:59;7.60;99.90
41882;DHT22;27562;47.524;12.404;2023-10-31T15:13:25;7.70;99.90
41882;DHT22;27562;47.524;12.404;2023-10-31T15:15:51;7.70;99.90
41882;DHT22;27562;47.524;12.404;2023-10-31T15:18:17;7.70;99.90
41882;DHT22;27562;47.524;12.404;2023-10-31T15:20:43;7.80;99.90
41882;DHT22;27562;47.524;12.404;2023-10-31T15:23:09;7.80;99.90
41882;DHT22;27562;47.524;12.404;2023-10-31T15:25:34;7.70;99.90
41882;DHT22;27562;47.524;12.404;2023-10-31T15:28:00;7.70;99.90
41882;DHT22;27562;47.524;12.404;2023-10-31T15:30:26;7.70;99.90
41882;DHT22;27562;47.524;12.404;2023-10-31T15:32:51;7.80;99.90